Terminal Aerodrome Forecast
Issued by NWS Kansas City/Pleasant Hill, MO

Home | Current Version | Previous Version | Text Only | Print | Product List | Glossary Off
Versions: 1 2 3 4 5 6 7 8 9 10 11 12 13 14 15 16 17 18 19 20

479
FTUS43 KEAX 261120
TAFMCI
TAF
KMCI 261120Z 2612/2712 28007KT P6SM OVC006
     FM261800 VRB05KT P6SM OVC015
     FM270200 05006KT P6SM VCSH OVC012
     FM270600 02007KT 5SM -SHRA OVC008=

USA.gov is the U.S. government's official web portal to all federal, state and local government web resources and services.